createdAt,value
2023-02-28T00:01:33.760Z,63.50
2023-02-28T00:04:02.162Z,60.72
2023-02-28T00:06:29.832Z,54.42
2023-02-28T00:08:57.705Z,58.63
2023-02-28T00:11:28.181Z,60.10
2023-02-28T00:13:56.062Z,48.85
2023-02-28T00:16:23.965Z,54.50
2023-02-28T00:18:52.289Z,54.95
2023-02-28T00:21:21.090Z,55.28
2023-02-28T00:23:49.154Z,59.45
2023-02-28T00:26:16.608Z,59.10
2023-02-28T00:28:46.870Z,56.92
2023-02-28T00:31:14.236Z,55.65
2023-02-28T00:33:42.209Z,59.13
2023-02-28T00:36:11.525Z,56.88
2023-02-28T00:38:39.990Z,63.83
2023-02-28T00:41:08.479Z,66.05
2023-02-28T00:43:38.127Z,57.40
2023-02-28T00:46:06.106Z,62.08
2023-02-28T00:48:33.936Z,60.35
2023-02-28T00:51:01.908Z,61.28
2023-02-28T00:53:30.589Z,69.60
2023-02-28T00:55:58.537Z,82.45
2023-02-28T00:58:27.820Z,95.82
2023-02-28T01:00:55.840Z,84.07
2023-02-28T01:03:23.930Z,83.78
2023-02-28T01:05:54.260Z,89.45
2023-02-28T01:08:22.224Z,97.70
2023-02-28T01:10:51.477Z,83.40
2023-02-28T01:13:19.682Z,79.53
2023-02-28T01:15:52.081Z,89.00
2023-02-28T01:18:22.406Z,82.93
2023-02-28T01:20:50.434Z,93.28
2023-02-28T01:23:18.139Z,89.80
2023-02-28T01:25:45.393Z,83.75
2023-02-28T01:28:13.274Z,86.00
2023-02-28T01:30:40.695Z,77.30
2023-02-28T01:33:08.563Z,80.70
2023-02-28T01:35:36.953Z,91.00
2023-02-28T01:38:20.625Z,79.25
2023-02-28T01:40:49.064Z,93.10
2023-02-28T01:43:30.873Z,84.05
2023-02-28T01:45:59.259Z,89.90
2023-02-28T01:48:30.326Z,85.35
2023-02-28T01:51:02.429Z,84.65
2023-02-28T01:53:40.699Z,85.97
2023-02-28T01:56:08.772Z,81.47
2023-02-28T01:58:36.962Z,81.03
2023-02-28T02:01:04.504Z,96.82
2023-02-28T02:03:32.402Z,100.95
2023-02-28T02:05:59.729Z,123.75
2023-02-28T02:08:29.509Z,114.70
2023-02-28T02:10:59.158Z,99.32
2023-02-28T02:13:48.136Z,100.50
2023-02-28T02:16:36.421Z,115.88
2023-02-28T02:19:16.325Z,109.50
2023-02-28T02:22:05.323Z,112.90
2023-02-28T02:24:51.633Z,148.95
2023-02-28T02:27:40.551Z,132.98
2023-02-28T02:30:08.170Z,151.55
2023-02-28T02:33:05.465Z,138.57
2023-02-28T02:35:38.198Z,144.55
2023-02-28T02:38:38.828Z,122.20
2023-02-28T02:41:26.894Z,154.23
2023-02-28T02:43:58.933Z,135.43
2023-02-28T02:49:59.735Z,140.98
2023-02-28T02:52:35.466Z,145.70
2023-02-28T02:55:08.077Z,149.35
2023-02-28T02:57:52.403Z,148.90
2023-02-28T03:00:22.887Z,156.88
2023-02-28T03:02:51.841Z,157.07
2023-02-28T03:05:24.558Z,148.95
2023-02-28T03:10:35.537Z,145.65
2023-02-28T03:13:21.785Z,146.45
2023-02-28T03:15:59.681Z,155.15
2023-02-28T03:18:42.122Z,150.35
2023-02-28T03:21:42.312Z,146.90
2023-02-28T03:24:18.450Z,173.40
2023-02-28T03:26:55.962Z,165.63
2023-02-28T03:29:32.629Z,164.93
2023-02-28T03:32:25.607Z,159.35
2023-02-28T03:35:02.516Z,166.98
2023-02-28T03:37:30.923Z,156.68
2023-02-28T03:40:02.214Z,164.80
2023-02-28T03:42:31.236Z,170.68
2023-02-28T03:45:02.064Z,181.75
2023-02-28T03:47:53.304Z,155.70
2023-02-28T03:50:28.439Z,158.13
2023-02-28T03:53:02.706Z,170.25
2023-02-28T03:55:46.468Z,146.80
2023-02-28T03:58:32.540Z,141.40
2023-02-28T04:01:12.744Z,140.98
2023-02-28T04:03:40.551Z,138.82
2023-02-28T04:06:14.817Z,148.45
2023-02-28T04:08:42.133Z,147.70
2023-02-28T04:11:34.295Z,138.93
2023-02-28T04:14:02.239Z,136.07
2023-02-28T04:16:35.434Z,142.25
2023-02-28T04:19:07.412Z,127.80
2023-02-28T04:21:37.660Z,126.77
2023-02-28T04:24:05.466Z,122.32
2023-02-28T04:26:35.116Z,118.45
2023-02-28T04:29:04.705Z,122.68
2023-02-28T04:31:32.878Z,122.35
2023-02-28T04:34:00.948Z,127.95
2023-02-28T04:36:28.644Z,134.98
2023-02-28T04:38:56.145Z,131.80
2023-02-28T04:41:24.075Z,111.28
2023-02-28T04:43:54.137Z,117.50
2023-02-28T04:46:22.069Z,140.23
2023-02-28T04:48:49.533Z,118.22
2023-02-28T04:51:19.211Z,125.75
2023-02-28T04:53:46.824Z,120.28
2023-02-28T04:56:16.985Z,123.15
2023-02-28T04:58:44.935Z,120.97
2023-02-28T05:01:32.040Z,120.28
2023-02-28T05:04:01.514Z,122.05
2023-02-28T05:06:32.335Z,117.15
2023-02-28T05:09:00.042Z,137.90
2023-02-28T05:11:35.926Z,114.43
2023-02-28T05:14:10.574Z,134.80
2023-02-28T05:16:38.538Z,132.23
2023-02-28T05:19:05.881Z,119.32
2023-02-28T05:21:36.690Z,130.02
2023-02-28T05:24:10.466Z,112.30
2023-02-28T05:26:40.515Z,118.40
2023-02-28T05:29:07.885Z,113.75
2023-02-28T05:31:36.251Z,119.43
2023-02-28T05:34:05.438Z,110.55
2023-02-28T05:36:33.154Z,109.18
2023-02-28T05:39:00.383Z,113.00
2023-02-28T05:41:28.457Z,111.25
2023-02-28T05:43:56.035Z,129.65
2023-02-28T05:46:23.772Z,120.93
2023-02-28T05:48:51.197Z,115.60
2023-02-28T05:51:19.143Z,116.78
2023-02-28T05:53:46.959Z,124.80
2023-02-28T05:56:14.694Z,114.00
2023-02-28T05:58:42.213Z,105.30
2023-02-28T06:01:36.460Z,117.05
2023-02-28T06:04:06.010Z,113.18
2023-02-28T06:06:37.042Z,105.05
2023-02-28T06:09:06.293Z,98.45
2023-02-28T06:11:34.535Z,106.05
2023-02-28T06:14:02.834Z,125.03
2023-02-28T06:16:32.730Z,139.07
2023-02-28T06:19:01.600Z,118.57
2023-02-28T06:21:30.284Z,124.22
2023-02-28T06:23:58.884Z,123.45
2023-02-28T06:26:27.037Z,95.93
2023-02-28T06:28:54.829Z,106.13
2023-02-28T06:31:23.430Z,94.05
2023-02-28T06:33:51.183Z,95.53
2023-02-28T06:36:19.716Z,78.43
2023-02-28T06:38:49.388Z,91.80
2023-02-28T06:41:17.126Z,85.95
2023-02-28T06:43:45.108Z,78.68
2023-02-28T06:46:15.421Z,82.43
2023-02-28T06:48:45.443Z,75.07
2023-02-28T06:51:16.627Z,76.82
2023-02-28T06:53:44.184Z,75.50
2023-02-28T06:56:14.718Z,75.80
2023-02-28T06:58:42.689Z,71.90
2023-02-28T07:01:10.448Z,73.00
2023-02-28T07:03:38.022Z,62.72
2023-02-28T07:06:06.797Z,62.78
2023-02-28T07:08:35.376Z,66.93
2023-02-28T07:11:03.649Z,66.30
2023-02-28T07:13:31.034Z,53.60
2023-02-28T07:16:01.250Z,53.20
2023-02-28T07:18:29.005Z,52.95
2023-02-28T07:20:57.504Z,58.20
2023-02-28T07:23:25.398Z,47.58
2023-02-28T07:25:53.313Z,37.15
2023-02-28T07:28:20.959Z,34.47
2023-02-28T07:30:49.452Z,38.65
2023-02-28T07:33:17.337Z,34.22
2023-02-28T07:35:45.358Z,31.63
2023-02-28T07:38:15.016Z,30.60
2023-02-28T07:40:42.900Z,28.58
2023-02-28T07:43:10.207Z,25.15
2023-02-28T07:45:38.378Z,25.95
2023-02-28T07:48:05.734Z,24.67
2023-02-28T07:50:33.612Z,26.27
2023-02-28T07:53:01.158Z,22.40
2023-02-28T07:55:28.937Z,27.45
2023-02-28T07:57:56.201Z,23.83
2023-02-28T08:00:24.676Z,19.55
2023-02-28T08:02:52.438Z,18.52
2023-02-28T08:05:22.202Z,16.42
2023-02-28T08:07:51.070Z,11.75
2023-02-28T08:10:18.856Z,16.95
2023-02-28T08:12:46.198Z,18.25
2023-02-28T08:15:14.008Z,17.52
2023-02-28T08:17:41.317Z,20.05
2023-02-28T08:20:10.344Z,16.10
2023-02-28T08:22:37.655Z,20.58
2023-02-28T08:25:05.766Z,18.73
2023-02-28T08:27:33.025Z,17.58
2023-02-28T08:30:00.621Z,12.30
2023-02-28T08:32:30.078Z,9.93
2023-02-28T08:34:58.352Z,13.13
2023-02-28T08:37:25.965Z,16.35
2023-02-28T08:39:56.418Z,12.93
2023-02-28T08:42:27.262Z,19.13
2023-02-28T08:44:57.321Z,19.10
2023-02-28T08:47:24.584Z,18.73
2023-02-28T08:49:52.356Z,17.85
2023-02-28T08:52:19.630Z,19.67
2023-02-28T08:54:47.482Z,16.17
2023-02-28T08:57:14.802Z,18.02
2023-02-28T08:59:42.526Z,20.42
2023-02-28T09:02:12.791Z,15.15
2023-02-28T09:04:40.507Z,15.35
2023-02-28T09:07:07.822Z,18.00
2023-02-28T09:09:35.486Z,15.68
2023-02-28T09:12:03.332Z,14.15
2023-02-28T09:14:31.186Z,14.32
2023-02-28T09:16:59.342Z,13.68
2023-02-28T09:19:26.963Z,14.25
2023-02-28T09:21:54.329Z,17.15
2023-02-28T09:24:22.258Z,13.23
2023-02-28T09:27:01.692Z,16.40
2023-02-28T09:29:34.009Z,14.60
2023-02-28T09:32:11.347Z,15.02
2023-02-28T09:34:41.350Z,15.80
2023-02-28T09:37:08.858Z,17.35
2023-02-28T09:39:36.517Z,20.50
2023-02-28T09:42:05.084Z,17.38
2023-02-28T09:44:44.855Z,18.58
2023-02-28T09:47:41.862Z,17.15
2023-02-28T09:50:35.654Z,17.05
2023-02-28T09:53:10.279Z,17.08
2023-02-28T09:55:47.463Z,14.63
2023-02-28T09:58:39.136Z,15.27
2023-02-28T10:01:27.499Z,20.63
2023-02-28T10:04:13.850Z,18.83
2023-02-28T10:06:48.157Z,16.55
2023-02-28T10:09:28.406Z,17.98
2023-02-28T10:12:05.470Z,19.23
2023-02-28T10:14:36.585Z,17.42
2023-02-28T10:17:10.190Z,17.38
2023-02-28T10:19:45.850Z,16.75
2023-02-28T10:22:23.941Z,16.42
2023-02-28T10:24:53.022Z,15.90
2023-02-28T10:27:23.139Z,15.35
2023-02-28T10:29:57.031Z,16.13
2023-02-28T10:32:29.443Z,19.80
2023-02-28T10:35:18.679Z,17.77
2023-02-28T10:37:52.027Z,16.60
2023-02-28T10:42:56.845Z,19.63
2023-02-28T10:45:25.101Z,17.23
2023-02-28T10:48:00.132Z,18.63
2023-02-28T10:50:52.219Z,15.88
2023-02-28T10:53:25.898Z,19.50
2023-02-28T10:56:04.055Z,16.60
2023-02-28T10:58:52.032Z,17.55
2023-02-28T11:01:22.760Z,18.45
2023-02-28T11:03:51.844Z,15.45
2023-02-28T11:06:37.755Z,18.00
2023-02-28T11:09:15.575Z,16.75
2023-02-28T11:11:48.503Z,19.60
2023-02-28T11:14:25.346Z,22.25
2023-02-28T11:16:53.473Z,17.95
2023-02-28T11:19:26.335Z,16.88
2023-02-28T11:21:57.360Z,17.88
2023-02-28T11:24:29.990Z,18.38
2023-02-28T11:26:58.119Z,21.08
2023-02-28T11:29:34.148Z,17.58
2023-02-28T11:32:22.213Z,20.17
2023-02-28T11:35:05.156Z,18.63
2023-02-28T11:37:33.028Z,18.80
2023-02-28T11:40:00.806Z,18.13
2023-02-28T11:42:29.584Z,15.75
2023-02-28T11:45:16.360Z,18.75
2023-02-28T11:48:24.412Z,19.30
2023-02-28T11:51:19.865Z,17.10
2023-02-28T11:54:10.360Z,20.48
2023-02-28T11:56:41.190Z,19.13
2023-02-28T11:59:45.914Z,15.90
2023-02-28T12:02:50.535Z,16.55
2023-02-28T12:05:39.104Z,19.95
2023-02-28T12:08:33.000Z,17.30
2023-02-28T12:14:07.873Z,15.02
2023-02-28T12:16:46.038Z,14.68
2023-02-28T12:19:35.581Z,17.42
2023-02-28T12:22:24.202Z,18.48
2023-02-28T12:25:00.609Z,17.17
2023-02-28T12:27:32.372Z,22.20
2023-02-28T12:30:04.702Z,17.95
2023-02-28T12:32:34.929Z,16.42
2023-02-28T12:35:05.151Z,17.63
2023-02-28T12:37:39.727Z,17.75
2023-02-28T12:40:14.059Z,17.65
2023-02-28T12:42:47.395Z,17.73
2023-02-28T12:45:21.295Z,14.52
2023-02-28T12:47:52.801Z,16.20
2023-02-28T12:50:21.197Z,15.15
2023-02-28T12:52:55.906Z,17.63
2023-02-28T12:55:41.614Z,15.38
2023-02-28T12:58:30.502Z,18.10
2023-02-28T13:01:19.888Z,15.57
2023-02-28T13:04:16.576Z,16.38
2023-02-28T13:07:21.828Z,14.90
2023-02-28T13:10:01.232Z,17.67
2023-02-28T13:12:29.583Z,15.95
2023-02-28T13:15:22.578Z,17.55
2023-02-28T13:17:52.764Z,16.05
2023-02-28T13:20:26.597Z,14.23
2023-02-28T13:22:56.365Z,13.80
2023-02-28T13:25:23.709Z,13.40
2023-02-28T13:27:58.203Z,15.10
2023-02-28T13:30:57.056Z,15.15
2023-02-28T13:33:45.373Z,15.75
2023-02-28T13:36:24.444Z,15.15
2023-02-28T13:38:55.017Z,12.48
2023-02-28T13:41:37.221Z,13.73
2023-02-28T13:44:13.667Z,15.70
2023-02-28T13:46:49.982Z,13.77
2023-02-28T13:49:23.779Z,13.48
2023-02-28T13:54:40.419Z,14.48
2023-02-28T13:57:19.041Z,13.25
2023-02-28T14:00:02.248Z,14.75
2023-02-28T14:03:17.935Z,12.27
2023-02-28T14:05:45.853Z,14.30
2023-02-28T14:08:18.011Z,15.27
2023-02-28T14:10:51.365Z,14.13
2023-02-28T14:16:07.541Z,13.75
2023-02-28T14:18:39.736Z,13.20
2023-02-28T14:21:22.159Z,19.90
2023-02-28T14:23:52.630Z,12.43
2023-02-28T14:26:36.837Z,14.52
2023-02-28T14:29:41.551Z,14.38
2023-02-28T14:32:22.947Z,14.60
2023-02-28T14:35:27.718Z,18.08
2023-02-28T14:37:56.394Z,15.35
2023-02-28T14:40:31.095Z,15.75
2023-02-28T14:43:01.414Z,14.25
2023-02-28T14:45:31.743Z,14.25
2023-02-28T14:48:00.085Z,15.57
2023-02-28T14:50:36.234Z,13.35
2023-02-28T14:53:04.264Z,14.27
2023-02-28T14:55:35.232Z,13.70
2023-02-28T14:58:07.664Z,15.02
2023-02-28T15:00:38.588Z,13.53
2023-02-28T15:03:19.999Z,16.27
2023-02-28T15:06:05.442Z,15.75
2023-02-28T15:08:37.373Z,17.73
2023-02-28T15:11:10.059Z,22.23
2023-02-28T15:13:42.153Z,20.05
2023-02-28T15:16:13.630Z,19.52
2023-02-28T15:18:50.485Z,15.52
2023-02-28T15:21:20.134Z,22.15
2023-02-28T15:23:52.186Z,16.58
2023-02-28T15:26:23.391Z,18.02
2023-02-28T15:29:00.104Z,28.77
2023-02-28T15:31:46.858Z,47.67
2023-02-28T15:34:37.059Z,47.97
2023-02-28T15:37:26.720Z,18.85
2023-02-28T15:39:56.433Z,28.90
2023-02-28T15:42:28.883Z,25.35
2023-02-28T15:47:26.486Z,18.55
2023-02-28T15:50:02.143Z,26.02
2023-02-28T15:52:39.081Z,20.35
2023-02-28T15:55:13.784Z,28.73
2023-02-28T15:57:41.733Z,37.50
2023-02-28T16:00:14.416Z,31.08
2023-02-28T16:02:42.672Z,32.15
2023-02-28T16:05:10.441Z,26.17
2023-02-28T16:07:44.252Z,30.27
2023-02-28T16:10:15.227Z,30.25
2023-02-28T16:12:42.828Z,26.48
2023-02-28T16:15:20.007Z,27.77
2023-02-28T16:17:47.910Z,163.40
2023-02-28T16:20:27.177Z,191.80
2023-02-28T16:22:55.444Z,85.55
2023-02-28T16:25:35.214Z,47.30
2023-02-28T16:28:02.713Z,40.22
2023-02-28T16:30:33.948Z,56.95
2023-02-28T16:33:01.344Z,48.50
2023-02-28T16:35:29.079Z,108.15
2023-02-28T16:37:56.797Z,117.93
2023-02-28T16:40:27.057Z,89.60
2023-02-28T16:42:57.098Z,66.60
2023-02-28T16:45:27.030Z,81.55
2023-02-28T16:47:55.163Z,76.05
2023-02-28T16:50:28.977Z,64.50
2023-02-28T16:52:56.560Z,52.53
2023-02-28T16:55:25.255Z,47.33
2023-02-28T16:57:57.573Z,40.38
2023-02-28T17:00:25.993Z,31.05
2023-02-28T17:02:53.556Z,38.35
2023-02-28T17:05:22.580Z,32.72
2023-02-28T17:07:50.322Z,115.03
2023-02-28T17:10:21.083Z,145.15
2023-02-28T17:12:48.637Z,155.73
2023-02-28T17:15:18.104Z,219.90
2023-02-28T17:17:45.859Z,120.38
2023-02-28T17:20:18.654Z,100.82
2023-02-28T17:22:45.971Z,84.88
2023-02-28T17:25:13.755Z,113.63
2023-02-28T17:27:41.151Z,90.80
2023-02-28T17:30:18.450Z,71.45
2023-02-28T17:32:46.046Z,72.10
2023-02-28T17:35:14.789Z,61.83
2023-02-28T17:37:43.300Z,84.03
2023-02-28T17:40:16.775Z,80.68
2023-02-28T17:42:45.258Z,66.22
2023-02-28T17:45:14.749Z,74.15
2023-02-28T17:47:45.025Z,80.25
2023-02-28T17:50:18.562Z,69.80
2023-02-28T17:52:46.185Z,64.10
2023-02-28T17:55:14.473Z,76.85
2023-02-28T17:57:43.103Z,86.53
2023-02-28T18:00:19.038Z,95.20
2023-02-28T18:02:46.599Z,103.75
2023-02-28T18:05:14.481Z,99.43
2023-02-28T18:07:42.299Z,96.32
2023-02-28T18:10:20.606Z,97.18
2023-02-28T18:12:49.258Z,103.45
2023-02-28T18:15:18.338Z,92.25
2023-02-28T18:17:45.636Z,89.22
2023-02-28T18:20:13.548Z,96.18
2023-02-28T18:22:42.373Z,98.00
2023-02-28T18:25:14.826Z,89.13
2023-02-28T18:27:54.307Z,85.00
2023-02-28T18:30:22.604Z,89.20
2023-02-28T18:32:49.959Z,93.05
2023-02-28T18:35:34.822Z,91.55
2023-02-28T18:38:09.134Z,91.93
2023-02-28T18:40:37.112Z,82.22
2023-02-28T18:43:04.585Z,89.78
2023-02-28T18:45:32.862Z,87.13
2023-02-28T18:48:00.277Z,89.93
2023-02-28T18:50:28.045Z,85.13
2023-02-28T18:52:55.420Z,79.50
2023-02-28T18:55:23.646Z,82.18
2023-02-28T18:57:50.938Z,81.93
2023-02-28T19:00:22.654Z,84.32
2023-02-28T19:02:53.687Z,96.28
2023-02-28T19:05:22.093Z,104.28
2023-02-28T19:07:49.965Z,100.20
2023-02-28T19:10:18.060Z,84.78
2023-02-28T19:12:46.274Z,89.25
2023-02-28T19:15:14.368Z,86.00
2023-02-28T19:17:42.324Z,74.90
2023-02-28T19:20:10.912Z,79.32
2023-02-28T19:22:39.071Z,81.65
2023-02-28T19:25:08.325Z,83.18
2023-02-28T19:27:36.183Z,83.93
2023-02-28T19:30:05.115Z,78.30
2023-02-28T19:32:32.665Z,73.25
2023-02-28T19:35:00.667Z,81.47
2023-02-28T19:37:28.321Z,82.43
2023-02-28T19:39:57.326Z,95.88
2023-02-28T19:42:25.360Z,88.57
2023-02-28T19:44:53.414Z,77.70
2023-02-28T19:47:21.957Z,89.82
2023-02-28T19:49:50.956Z,82.43
2023-02-28T19:52:18.328Z,89.90
2023-02-28T19:54:46.279Z,87.75
2023-02-28T19:57:14.408Z,84.75
2023-02-28T19:59:43.930Z,94.95
2023-02-28T20:02:16.241Z,86.68
2023-02-28T20:04:48.896Z,88.60
2023-02-28T20:07:18.607Z,87.40
2023-02-28T20:09:48.248Z,92.65
2023-02-28T20:12:26.096Z,98.85
2023-02-28T20:14:58.372Z,95.97
2023-02-28T20:17:26.682Z,97.72
2023-02-28T20:19:55.847Z,94.78
2023-02-28T20:22:23.906Z,94.35
2023-02-28T20:24:53.806Z,98.20
2023-02-28T20:27:21.447Z,104.78
2023-02-28T20:29:49.948Z,98.88
2023-02-28T20:32:18.330Z,96.70
2023-02-28T20:34:46.331Z,83.40
2023-02-28T20:37:13.897Z,95.35
2023-02-28T20:39:42.287Z,94.13
2023-02-28T20:42:09.755Z,85.40
2023-02-28T20:44:37.670Z,89.00
2023-02-28T20:47:05.125Z,85.60
2023-02-28T20:49:33.143Z,123.63
2023-02-28T20:52:00.505Z,114.68
2023-02-28T20:54:30.546Z,143.10
2023-02-28T20:56:57.902Z,105.60
2023-02-28T20:59:25.607Z,98.35
2023-02-28T21:01:53.317Z,88.15
2023-02-28T21:04:21.395Z,96.88
2023-02-28T21:06:48.916Z,100.45
2023-02-28T21:09:16.775Z,103.13
2023-02-28T21:11:44.857Z,90.70
2023-02-28T21:14:17.620Z,98.82
2023-02-28T21:16:46.304Z,92.90
2023-02-28T21:19:14.223Z,81.30
2023-02-28T21:21:44.096Z,92.30
2023-02-28T21:24:13.248Z,89.80
2023-02-28T21:26:42.119Z,95.93
2023-02-28T21:29:10.031Z,93.13
2023-02-28T21:31:38.164Z,82.22
2023-02-28T21:34:08.035Z,90.25
2023-02-28T21:36:41.294Z,83.22
2023-02-28T21:39:14.200Z,98.38
2023-02-28T21:41:42.048Z,94.80
2023-02-28T21:44:18.985Z,93.18
2023-02-28T21:46:47.776Z,95.00
2023-02-28T21:49:16.445Z,89.63
2023-02-28T21:51:44.159Z,98.22
2023-02-28T21:54:12.049Z,97.90
2023-02-28T21:56:39.831Z,94.30
2023-02-28T21:59:09.585Z,96.18
2023-02-28T22:01:39.913Z,84.43
2023-02-28T22:04:10.887Z,87.15
2023-02-28T22:06:40.529Z,85.57
2023-02-28T22:09:10.146Z,91.63
2023-02-28T22:11:39.345Z,96.72
2023-02-28T22:14:07.602Z,97.22
2023-02-28T22:16:49.682Z,92.97
2023-02-28T22:19:18.946Z,87.18
2023-02-28T22:21:47.730Z,95.38
2023-02-28T22:24:18.178Z,93.70
2023-02-28T22:26:45.570Z,83.72
2023-02-28T22:29:13.960Z,99.25
2023-02-28T22:31:41.638Z,86.85
2023-02-28T22:34:11.871Z,102.60
2023-02-28T22:36:41.562Z,98.05
2023-02-28T22:39:09.957Z,97.13
2023-02-28T22:41:37.831Z,102.30
2023-02-28T22:44:05.877Z,93.28
2023-02-28T22:46:35.390Z,91.50
2023-02-28T22:49:04.960Z,93.70
2023-02-28T22:51:32.319Z,89.65
2023-02-28T22:54:00.085Z,89.00
2023-02-28T22:56:29.468Z,89.72
2023-02-28T22:58:59.104Z,97.40
2023-02-28T23:01:28.563Z,90.80
2023-02-28T23:03:56.959Z,94.97
2023-02-28T23:06:30.426Z,97.47
2023-02-28T23:09:01.256Z,104.15
2023-02-28T23:11:34.157Z,109.13
2023-02-28T23:14:02.491Z,106.97
2023-02-28T23:16:30.139Z,105.03
2023-02-28T23:18:59.707Z,91.10
2023-02-28T23:21:27.763Z,92.60
2023-02-28T23:23:55.727Z,86.10
2023-02-28T23:26:23.920Z,90.78
2023-02-28T23:28:51.506Z,101.60
2023-02-28T23:31:19.126Z,92.65
2023-02-28T23:33:46.817Z,92.50
2023-02-28T23:36:15.675Z,101.00
2023-02-28T23:38:48.505Z,100.38
2023-02-28T23:41:16.398Z,88.18
2023-02-28T23:43:44.618Z,90.43
2023-02-28T23:46:13.591Z,105.20
2023-02-28T23:48:42.159Z,93.38
2023-02-28T23:51:16.968Z,98.18
2023-02-28T23:53:47.427Z,87.63
2023-02-28T23:56:17.896Z,94.03
2023-02-28T23:58:46.008Z,96.78
